Lexington, KY (40513)

9:54 AM EST on January 28, 2015 (GMT -0500)
Beaumont | Change Station
CLOSE
Current Station
Personal Weather Station
Location: Lexington, KY
Elevation: 976 ft
Nearby Weather Stations

Elev 976 ft 38.02 °N, 84.56 °W | Updated 13 seconds ago

Clear
Clear
23.5 °F
Feels Like 18 °F
N
4.0
Wind Variable Wind from SE
Gusts 4.0 mph

Today
High -- | Low -- °F
--% Chance of Precip.
Yesterday
High -- | Low -- °F
Precip. -- in
7:46 AM 5:56 PM
Waxing Gibbous, 65% visible
Pressure 30.40 in
Visibility 10.0 miles
Clouds Clear
Windchill 18 °F
Dew Point 12 °F
Humidity 62%
Rainfall 0.00 in
Snow Depth Not available.
UV 1 out of 12
Pollen .10 out of 12
Air Quality Not available.
Flu Activity Not available.
METAR KLEX 281354Z 00000KT 10SM CLR M07/M10 A3036 RMK AO2 SLP294 T10671100

More Conditions Fewer Conditions

Pressure 30.40 in
Visibility 10.0 miles
Clouds Clear
Windchill 18 °F
Dew Point 12 °F
Humidity 62%
Rainfall 0.00 in
Snow Depth Not available.
UV 1 out of 12
Pollen .10 out of 12
Air Quality Not available.
Flu Activity Not available.
METAR KLEX 281354Z 00000KT 10SM CLR M07/M10 A3036 RMK AO2 SLP294 T10671100

More Conditions Fewer Conditions

10-Day Weather Forecast

Almanac

Astronomy

Jan. 28, 2015 Rise Set
Actual Time
Civil Twilight
Nautical Twilight
Astronomical Twilight
Moon
Length of Visible Light
Length of Day
Tomorrow will be .
, % of the Moon is Illuminated

Today's Extremes

State Highs State Lows

Community

WunderPhotos

Upload Photos

1,791,160 photos uploaded!

WunderBlogs® & News

Nearby

Air Quality

  Air Quality AQ Index Pollutant
Not available.

Snow Depth

Station Depth Elevation

Earthquake Activity

City Distance Mag. Time & Date
Minimum magnitude displayed is 2.5.

Coastal Water Temperatures

Place Temperature

Nearby Weather Stations